sensor_id;sensor_type;location;lat;lon;timestamp;P1;durP1;ratioP1;P2;durP2;ratioP2
828;SDS011;396;52.558;13.188;2023-03-13T00:00:53;18.33;;;3.93;;
828;SDS011;396;52.558;13.188;2023-03-13T00:03:21;14.00;;;3.70;;
828;SDS011;396;52.558;13.188;2023-03-13T00:05:48;9.97;;;4.13;;
828;SDS011;396;52.558;13.188;2023-03-13T00:08:15;11.00;;;3.37;;
828;SDS011;396;52.558;13.188;2023-03-13T00:10:41;11.83;;;3.23;;
828;SDS011;396;52.558;13.188;2023-03-13T00:13:08;8.13;;;3.10;;
828;SDS011;396;52.558;13.188;2023-03-13T00:15:35;10.33;;;4.43;;
828;SDS011;396;52.558;13.188;2023-03-13T00:18:03;10.53;;;3.23;;
828;SDS011;396;52.558;13.188;2023-03-13T00:20:29;13.40;;;3.80;;
828;SDS011;396;52.558;13.188;2023-03-13T00:22:56;10.83;;;4.17;;
828;SDS011;396;52.558;13.188;2023-03-13T00:25:23;9.23;;;3.77;;
828;SDS011;396;52.558;13.188;2023-03-13T00:27:49;8.30;;;4.00;;
828;SDS011;396;52.558;13.188;2023-03-13T00:30:16;19.77;;;4.27;;
828;SDS011;396;52.558;13.188;2023-03-13T00:32:44;12.90;;;4.10;;
828;SDS011;396;52.558;13.188;2023-03-13T00:35:12;10.87;;;4.07;;
828;SDS011;396;52.558;13.188;2023-03-13T00:37:39;10.03;;;4.33;;
828;SDS011;396;52.558;13.188;2023-03-13T00:40:06;13.73;;;3.77;;
828;SDS011;396;52.558;13.188;2023-03-13T00:42:34;15.93;;;4.30;;
828;SDS011;396;52.558;13.188;2023-03-13T00:45:01;9.50;;;3.60;;
828;SDS011;396;52.558;13.188;2023-03-13T00:47:27;16.53;;;3.93;;
828;SDS011;396;52.558;13.188;2023-03-13T00:49:54;14.20;;;4.40;;
828;SDS011;396;52.558;13.188;2023-03-13T00:52:22;9.37;;;3.87;;
828;SDS011;396;52.558;13.188;2023-03-13T00:54:49;11.73;;;3.63;;
828;SDS011;396;52.558;13.188;2023-03-13T00:57:15;10.30;;;3.70;;
828;SDS011;396;52.558;13.188;2023-03-13T00:59:42;12.47;;;4.60;;
828;SDS011;396;52.558;13.188;2023-03-13T01:02:08;21.60;;;4.53;;
828;SDS011;396;52.558;13.188;2023-03-13T01:04:35;11.63;;;3.63;;
828;SDS011;396;52.558;13.188;2023-03-13T01:07:01;13.80;;;3.83;;
828;SDS011;396;52.558;13.188;2023-03-13T01:09:29;11.20;;;3.90;;
828;SDS011;396;52.558;13.188;2023-03-13T01:11:56;12.83;;;4.40;;
828;SDS011;396;52.558;13.188;2023-03-13T01:14:22;9.40;;;4.40;;
828;SDS011;396;52.558;13.188;2023-03-13T01:16:49;9.53;;;3.53;;
828;SDS011;396;52.558;13.188;2023-03-13T01:19:16;11.50;;;3.60;;
828;SDS011;396;52.558;13.188;2023-03-13T01:21:43;9.20;;;3.43;;
828;SDS011;396;52.558;13.188;2023-03-13T01:24:10;8.63;;;3.80;;
828;SDS011;396;52.558;13.188;2023-03-13T01:26:38;11.37;;;3.70;;
828;SDS011;396;52.558;13.188;2023-03-13T01:29:05;9.70;;;3.30;;
828;SDS011;396;52.558;13.188;2023-03-13T01:31:32;11.43;;;3.83;;
828;SDS011;396;52.558;13.188;2023-03-13T01:34:00;9.73;;;4.30;;
828;SDS011;396;52.558;13.188;2023-03-13T01:36:28;14.63;;;3.80;;
828;SDS011;396;52.558;13.188;2023-03-13T01:38:55;11.60;;;3.63;;
828;SDS011;396;52.558;13.188;2023-03-13T01:41:24;15.20;;;3.47;;
828;SDS011;396;52.558;13.188;2023-03-13T01:43:53;13.17;;;3.10;;
828;SDS011;396;52.558;13.188;2023-03-13T01:46:20;7.60;;;3.07;;
828;SDS011;396;52.558;13.188;2023-03-13T01:48:50;10.90;;;3.27;;
828;SDS011;396;52.558;13.188;2023-03-13T01:51:20;24.60;;;3.43;;
828;SDS011;396;52.558;13.188;2023-03-13T01:53:50;12.30;;;3.50;;
828;SDS011;396;52.558;13.188;2023-03-13T01:56:24;7.97;;;2.80;;
828;SDS011;396;52.558;13.188;2023-03-13T01:58:58;7.30;;;2.60;;
828;SDS011;396;52.558;13.188;2023-03-13T02:01:25;11.20;;;3.80;;
828;SDS011;396;52.558;13.188;2023-03-13T02:03:52;10.73;;;3.33;;
828;SDS011;396;52.558;13.188;2023-03-13T02:06:21;13.73;;;3.20;;
828;SDS011;396;52.558;13.188;2023-03-13T02:08:50;8.77;;;2.57;;
828;SDS011;396;52.558;13.188;2023-03-13T02:11:22;7.23;;;3.20;;
828;SDS011;396;52.558;13.188;2023-03-13T02:13:55;11.73;;;3.33;;
828;SDS011;396;52.558;13.188;2023-03-13T02:16:24;10.23;;;3.40;;
828;SDS011;396;52.558;13.188;2023-03-13T02:18:52;15.30;;;3.33;;
828;SDS011;396;52.558;13.188;2023-03-13T02:21:21;10.13;;;2.80;;
828;SDS011;396;52.558;13.188;2023-03-13T02:23:58;8.53;;;2.60;;
828;SDS011;396;52.558;13.188;2023-03-13T02:26:33;8.30;;;2.83;;
828;SDS011;396;52.558;13.188;2023-03-13T02:29:00;9.70;;;3.43;;
828;SDS011;396;52.558;13.188;2023-03-13T02:31:27;7.17;;;2.53;;
828;SDS011;396;52.558;13.188;2023-03-13T02:33:54;7.50;;;2.07;;
828;SDS011;396;52.558;13.188;2023-03-13T02:36:25;6.53;;;2.33;;
828;SDS011;396;52.558;13.188;2023-03-13T02:38:54;9.10;;;2.33;;
828;SDS011;396;52.558;13.188;2023-03-13T02:41:25;14.13;;;3.27;;
828;SDS011;396;52.558;13.188;2023-03-13T02:43:55;8.53;;;2.70;;
828;SDS011;396;52.558;13.188;2023-03-13T02:46:21;10.80;;;3.23;;
828;SDS011;396;52.558;13.188;2023-03-13T02:48:48;7.53;;;2.40;;
828;SDS011;396;52.558;13.188;2023-03-13T02:51:17;10.30;;;2.90;;
828;SDS011;396;52.558;13.188;2023-03-13T02:53:51;8.37;;;2.70;;
828;SDS011;396;52.558;13.188;2023-03-13T02:56:21;6.40;;;1.93;;
828;SDS011;396;52.558;13.188;2023-03-13T02:58:50;9.13;;;3.47;;
828;SDS011;396;52.558;13.188;2023-03-13T03:01:18;10.40;;;2.90;;
828;SDS011;396;52.558;13.188;2023-03-13T03:03:45;11.30;;;2.60;;
828;SDS011;396;52.558;13.188;2023-03-13T03:06:12;7.10;;;2.30;;
828;SDS011;396;52.558;13.188;2023-03-13T03:08:39;7.43;;;2.33;;
828;SDS011;396;52.558;13.188;2023-03-13T03:11:08;13.90;;;2.17;;
828;SDS011;396;52.558;13.188;2023-03-13T03:13:35;8.47;;;2.80;;
828;SDS011;396;52.558;13.188;2023-03-13T03:16:04;10.33;;;2.67;;
828;SDS011;396;52.558;13.188;2023-03-13T03:18:33;10.57;;;2.90;;
828;SDS011;396;52.558;13.188;2023-03-13T03:21:00;12.37;;;3.10;;
828;SDS011;396;52.558;13.188;2023-03-13T03:23:30;8.37;;;2.30;;
828;SDS011;396;52.558;13.188;2023-03-13T03:25:57;6.83;;;2.30;;
828;SDS011;396;52.558;13.188;2023-03-13T03:28:23;9.07;;;2.30;;
828;SDS011;396;52.558;13.188;2023-03-13T03:30:50;8.83;;;2.37;;
828;SDS011;396;52.558;13.188;2023-03-13T03:33:18;6.87;;;2.43;;
828;SDS011;396;52.558;13.188;2023-03-13T03:35:46;20.03;;;2.50;;
828;SDS011;396;52.558;13.188;2023-03-13T03:38:12;10.50;;;2.73;;
828;SDS011;396;52.558;13.188;2023-03-13T03:40:39;10.93;;;2.27;;
828;SDS011;396;52.558;13.188;2023-03-13T03:43:06;7.20;;;2.27;;
828;SDS011;396;52.558;13.188;2023-03-13T03:45:32;13.37;;;2.50;;
828;SDS011;396;52.558;13.188;2023-03-13T03:47:59;6.77;;;2.10;;
828;SDS011;396;52.558;13.188;2023-03-13T03:50:25;7.83;;;2.13;;
828;SDS011;396;52.558;13.188;2023-03-13T03:52:54;9.83;;;2.53;;
828;SDS011;396;52.558;13.188;2023-03-13T03:55:20;9.53;;;2.60;;
828;SDS011;396;52.558;13.188;2023-03-13T03:57:47;11.00;;;2.27;;
828;SDS011;396;52.558;13.188;2023-03-13T04:00:14;8.30;;;2.30;;
828;SDS011;396;52.558;13.188;2023-03-13T04:02:43;5.10;;;1.60;;
828;SDS011;396;52.558;13.188;2023-03-13T04:05:09;14.33;;;2.00;;
828;SDS011;396;52.558;13.188;2023-03-13T04:07:36;18.67;;;2.00;;
828;SDS011;396;52.558;13.188;2023-03-13T04:10:04;9.10;;;2.50;;
828;SDS011;396;52.558;13.188;2023-03-13T04:12:32;6.90;;;2.57;;
828;SDS011;396;52.558;13.188;2023-03-13T04:14:58;10.20;;;1.67;;
828;SDS011;396;52.558;13.188;2023-03-13T04:17:25;13.40;;;2.37;;
828;SDS011;396;52.558;13.188;2023-03-13T04:19:51;7.90;;;2.17;;
828;SDS011;396;52.558;13.188;2023-03-13T04:22:18;10.77;;;1.63;;
828;SDS011;396;52.558;13.188;2023-03-13T04:24:45;21.80;;;2.37;;
828;SDS011;396;52.558;13.188;2023-03-13T04:27:13;10.07;;;2.50;;
828;SDS011;396;52.558;13.188;2023-03-13T04:29:39;24.03;;;2.40;;
828;SDS011;396;52.558;13.188;2023-03-13T04:32:06;19.33;;;2.80;;
828;SDS011;396;52.558;13.188;2023-03-13T04:34:33;8.20;;;2.00;;
828;SDS011;396;52.558;13.188;2023-03-13T04:37:00;8.30;;;1.90;;
828;SDS011;396;52.558;13.188;2023-03-13T04:39:26;9.97;;;2.30;;
828;SDS011;396;52.558;13.188;2023-03-13T04:41:53;15.80;;;2.60;;
828;SDS011;396;52.558;13.188;2023-03-13T04:44:22;8.20;;;2.17;;
828;SDS011;396;52.558;13.188;2023-03-13T04:46:49;12.93;;;1.90;;
828;SDS011;396;52.558;13.188;2023-03-13T04:49:15;11.13;;;1.97;;
828;SDS011;396;52.558;13.188;2023-03-13T04:51:42;8.03;;;1.60;;
828;SDS011;396;52.558;13.188;2023-03-13T04:54:10;13.17;;;2.37;;
828;SDS011;396;52.558;13.188;2023-03-13T04:56:37;7.50;;;2.23;;
828;SDS011;396;52.558;13.188;2023-03-13T04:59:04;11.20;;;2.30;;
828;SDS011;396;52.558;13.188;2023-03-13T05:01:32;8.70;;;1.90;;
828;SDS011;396;52.558;13.188;2023-03-13T05:03:58;8.43;;;1.90;;
828;SDS011;396;52.558;13.188;2023-03-13T05:06:25;21.23;;;2.03;;
828;SDS011;396;52.558;13.188;2023-03-13T05:08:51;7.60;;;1.73;;
828;SDS011;396;52.558;13.188;2023-03-13T05:11:18;10.60;;;1.90;;
828;SDS011;396;52.558;13.188;2023-03-13T05:13:45;8.20;;;1.73;;
828;SDS011;396;52.558;13.188;2023-03-13T05:16:11;8.23;;;2.33;;
828;SDS011;396;52.558;13.188;2023-03-13T05:18:39;12.33;;;2.80;;
828;SDS011;396;52.558;13.188;2023-03-13T05:21:06;9.60;;;1.90;;
828;SDS011;396;52.558;13.188;2023-03-13T05:23:33;9.90;;;2.30;;
828;SDS011;396;52.558;13.188;2023-03-13T05:26:00;10.50;;;1.63;;
828;SDS011;396;52.558;13.188;2023-03-13T05:28:26;14.30;;;2.30;;
828;SDS011;396;52.558;13.188;2023-03-13T05:30:53;13.27;;;2.13;;
828;SDS011;396;52.558;13.188;2023-03-13T05:33:19;7.43;;;2.07;;
828;SDS011;396;52.558;13.188;2023-03-13T05:35:47;10.43;;;2.40;;
828;SDS011;396;52.558;13.188;2023-03-13T05:38:14;6.20;;;2.10;;
828;SDS011;396;52.558;13.188;2023-03-13T05:40:41;7.30;;;1.90;;
828;SDS011;396;52.558;13.188;2023-03-13T05:43:07;7.90;;;1.93;;
828;SDS011;396;52.558;13.188;2023-03-13T05:45:34;10.20;;;2.53;;
828;SDS011;396;52.558;13.188;2023-03-13T05:48:00;12.07;;;1.80;;
828;SDS011;396;52.558;13.188;2023-03-13T05:50:27;10.10;;;1.87;;
828;SDS011;396;52.558;13.188;2023-03-13T05:52:55;9.50;;;1.70;;
828;SDS011;396;52.558;13.188;2023-03-13T05:55:21;8.50;;;1.70;;
828;SDS011;396;52.558;13.188;2023-03-13T05:57:48;5.30;;;1.20;;
828;SDS011;396;52.558;13.188;2023-03-13T06:00:15;5.00;;;1.40;;
828;SDS011;396;52.558;13.188;2023-03-13T06:02:43;12.73;;;2.47;;
828;SDS011;396;52.558;13.188;2023-03-13T06:05:10;12.60;;;2.03;;
828;SDS011;396;52.558;13.188;2023-03-13T06:07:37;9.83;;;2.43;;
828;SDS011;396;52.558;13.188;2023-03-13T06:10:05;11.90;;;2.70;;
828;SDS011;396;52.558;13.188;2023-03-13T06:12:32;8.40;;;2.90;;
828;SDS011;396;52.558;13.188;2023-03-13T06:15:00;9.70;;;2.03;;
828;SDS011;396;52.558;13.188;2023-03-13T06:17:26;10.93;;;2.17;;
828;SDS011;396;52.558;13.188;2023-03-13T06:19:53;9.43;;;2.00;;
828;SDS011;396;52.558;13.188;2023-03-13T06:22:20;15.27;;;2.80;;
828;SDS011;396;52.558;13.188;2023-03-13T06:24:46;18.93;;;1.90;;
828;SDS011;396;52.558;13.188;2023-03-13T06:27:15;10.30;;;2.07;;
828;SDS011;396;52.558;13.188;2023-03-13T06:29:41;14.10;;;2.40;;
828;SDS011;396;52.558;13.188;2023-03-13T06:32:08;10.43;;;2.50;;
828;SDS011;396;52.558;13.188;2023-03-13T06:34:35;6.80;;;2.00;;
828;SDS011;396;52.558;13.188;2023-03-13T06:37:01;6.50;;;2.50;;
828;SDS011;396;52.558;13.188;2023-03-13T06:39:28;7.93;;;2.37;;
828;SDS011;396;52.558;13.188;2023-03-13T06:41:55;10.60;;;2.10;;
828;SDS011;396;52.558;13.188;2023-03-13T06:44:23;11.80;;;2.27;;
828;SDS011;396;52.558;13.188;2023-03-13T06:46:50;8.17;;;2.13;;
828;SDS011;396;52.558;13.188;2023-03-13T06:49:16;5.30;;;1.43;;
828;SDS011;396;52.558;13.188;2023-03-13T06:51:43;20.23;;;1.97;;
828;SDS011;396;52.558;13.188;2023-03-13T06:54:09;8.43;;;2.03;;
828;SDS011;396;52.558;13.188;2023-03-13T06:56:36;13.23;;;2.10;;
828;SDS011;396;52.558;13.188;2023-03-13T06:59:03;7.97;;;2.13;;
828;SDS011;396;52.558;13.188;2023-03-13T07:01:31;14.30;;;1.87;;
828;SDS011;396;52.558;13.188;2023-03-13T07:03:57;9.33;;;2.10;;
828;SDS011;396;52.558;13.188;2023-03-13T07:06:24;10.17;;;2.50;;
828;SDS011;396;52.558;13.188;2023-03-13T07:08:51;7.77;;;1.80;;
828;SDS011;396;52.558;13.188;2023-03-13T07:11:17;9.73;;;2.67;;
828;SDS011;396;52.558;13.188;2023-03-13T07:13:44;6.90;;;1.90;;
828;SDS011;396;52.558;13.188;2023-03-13T07:16:11;6.30;;;1.97;;
828;SDS011;396;52.558;13.188;2023-03-13T07:18:40;9.20;;;2.97;;
828;SDS011;396;52.558;13.188;2023-03-13T07:21:08;10.47;;;2.03;;
828;SDS011;396;52.558;13.188;2023-03-13T07:23:35;8.00;;;1.70;;
828;SDS011;396;52.558;13.188;2023-03-13T07:26:03;10.53;;;2.57;;
828;SDS011;396;52.558;13.188;2023-03-13T07:28:31;8.13;;;1.70;;
828;SDS011;396;52.558;13.188;2023-03-13T07:31:04;7.73;;;1.93;;
828;SDS011;396;52.558;13.188;2023-03-13T07:33:32;11.43;;;2.30;;
828;SDS011;396;52.558;13.188;2023-03-13T07:36:00;7.70;;;1.30;;
828;SDS011;396;52.558;13.188;2023-03-13T07:38:27;11.10;;;1.83;;
828;SDS011;396;52.558;13.188;2023-03-13T07:40:54;9.07;;;1.97;;
828;SDS011;396;52.558;13.188;2023-03-13T07:43:23;8.77;;;2.20;;
828;SDS011;396;52.558;13.188;2023-03-13T07:45:52;9.97;;;2.13;;
828;SDS011;396;52.558;13.188;2023-03-13T07:48:19;16.27;;;3.40;;
828;SDS011;396;52.558;13.188;2023-03-13T07:50:47;35.23;;;2.67;;
828;SDS011;396;52.558;13.188;2023-03-13T07:53:15;9.13;;;2.00;;
828;SDS011;396;52.558;13.188;2023-03-13T07:55:55;8.23;;;2.20;;
828;SDS011;396;52.558;13.188;2023-03-13T07:58:23;11.63;;;2.30;;
828;SDS011;396;52.558;13.188;2023-03-13T08:00:51;6.30;;;1.60;;
828;SDS011;396;52.558;13.188;2023-03-13T08:03:17;12.27;;;2.60;;
828;SDS011;396;52.558;13.188;2023-03-13T08:05:45;14.33;;;2.23;;
828;SDS011;396;52.558;13.188;2023-03-13T08:08:11;6.67;;;1.93;;
828;SDS011;396;52.558;13.188;2023-03-13T08:10:39;15.67;;;2.20;;
828;SDS011;396;52.558;13.188;2023-03-13T08:13:06;7.07;;;2.37;;
828;SDS011;396;52.558;13.188;2023-03-13T08:15:33;7.50;;;2.30;;
828;SDS011;396;52.558;13.188;2023-03-13T08:17:59;6.67;;;1.77;;
828;SDS011;396;52.558;13.188;2023-03-13T08:20:26;16.50;;;2.10;;
828;SDS011;396;52.558;13.188;2023-03-13T08:22:53;9.00;;;2.60;;
828;SDS011;396;52.558;13.188;2023-03-13T08:25:21;8.90;;;2.00;;
828;SDS011;396;52.558;13.188;2023-03-13T08:27:49;19.60;;;2.37;;
828;SDS011;396;52.558;13.188;2023-03-13T08:30:15;6.57;;;1.90;;
828;SDS011;396;52.558;13.188;2023-03-13T08:32:42;10.03;;;2.20;;
828;SDS011;396;52.558;13.188;2023-03-13T08:35:09;9.20;;;2.37;;
828;SDS011;396;52.558;13.188;2023-03-13T08:37:35;13.03;;;2.57;;
828;SDS011;396;52.558;13.188;2023-03-13T08:40:02;9.27;;;2.00;;
828;SDS011;396;52.558;13.188;2023-03-13T08:42:34;10.83;;;2.70;;
828;SDS011;396;52.558;13.188;2023-03-13T08:45:03;8.90;;;2.00;;
828;SDS011;396;52.558;13.188;2023-03-13T08:47:30;8.90;;;3.17;;
828;SDS011;396;52.558;13.188;2023-03-13T08:49:57;10.60;;;2.50;;
828;SDS011;396;52.558;13.188;2023-03-13T08:52:24;5.83;;;1.53;;
828;SDS011;396;52.558;13.188;2023-03-13T08:54:51;12.10;;;1.87;;
828;SDS011;396;52.558;13.188;2023-03-13T08:57:18;7.87;;;2.30;;
828;SDS011;396;52.558;13.188;2023-03-13T08:59:44;9.07;;;2.20;;
828;SDS011;396;52.558;13.188;2023-03-13T09:02:12;11.43;;;2.23;;
828;SDS011;396;52.558;13.188;2023-03-13T09:04:43;11.00;;;2.30;;
828;SDS011;396;52.558;13.188;2023-03-13T09:07:10;10.83;;;1.70;;
828;SDS011;396;52.558;13.188;2023-03-13T09:09:37;5.77;;;1.80;;
828;SDS011;396;52.558;13.188;2023-03-13T09:12:03;10.57;;;2.10;;
828;SDS011;396;52.558;13.188;2023-03-13T09:14:30;5.97;;;1.90;;
828;SDS011;396;52.558;13.188;2023-03-13T09:16:57;7.97;;;2.40;;
828;SDS011;396;52.558;13.188;2023-03-13T09:19:25;17.30;;;2.07;;
828;SDS011;396;52.558;13.188;2023-03-13T09:21:52;7.17;;;2.47;;
828;SDS011;396;52.558;13.188;2023-03-13T09:24:18;6.30;;;1.67;;
828;SDS011;396;52.558;13.188;2023-03-13T09:26:45;8.67;;;1.87;;
828;SDS011;396;52.558;13.188;2023-03-13T09:29:11;18.00;;;2.23;;
828;SDS011;396;52.558;13.188;2023-03-13T09:31:38;6.10;;;1.83;;
828;SDS011;396;52.558;13.188;2023-03-13T09:34:05;7.90;;;1.87;;
828;SDS011;396;52.558;13.188;2023-03-13T09:36:33;7.40;;;1.67;;
828;SDS011;396;52.558;13.188;2023-03-13T09:39:00;6.77;;;1.90;;
828;SDS011;396;52.558;13.188;2023-03-13T09:41:28;7.13;;;2.07;;
828;SDS011;396;52.558;13.188;2023-03-13T09:44:01;5.60;;;1.77;;
828;SDS011;396;52.558;13.188;2023-03-13T09:46:34;6.87;;;1.70;;
828;SDS011;396;52.558;13.188;2023-03-13T09:49:09;7.23;;;1.50;;
828;SDS011;396;52.558;13.188;2023-03-13T09:51:42;12.10;;;2.20;;
828;SDS011;396;52.558;13.188;2023-03-13T09:54:16;5.13;;;1.63;;
828;SDS011;396;52.558;13.188;2023-03-13T09:56:51;10.73;;;1.77;;
828;SDS011;396;52.558;13.188;2023-03-13T09:59:23;7.43;;;1.70;;
828;SDS011;396;52.558;13.188;2023-03-13T10:01:54;7.33;;;1.77;;
828;SDS011;396;52.558;13.188;2023-03-13T10:04:26;6.13;;;2.10;;
828;SDS011;396;52.558;13.188;2023-03-13T10:06:57;7.83;;;1.40;;
828;SDS011;396;52.558;13.188;2023-03-13T10:09:25;6.70;;;1.50;;
828;SDS011;396;52.558;13.188;2023-03-13T10:11:56;5.30;;;1.60;;
828;SDS011;396;52.558;13.188;2023-03-13T10:14:30;4.73;;;0.90;;
828;SDS011;396;52.558;13.188;2023-03-13T10:17:04;8.97;;;1.63;;
828;SDS011;396;52.558;13.188;2023-03-13T10:19:39;9.93;;;1.13;;
828;SDS011;396;52.558;13.188;2023-03-13T10:22:10;5.80;;;1.30;;
828;SDS011;396;52.558;13.188;2023-03-13T10:24:41;6.73;;;1.37;;
828;SDS011;396;52.558;13.188;2023-03-13T10:27:15;5.53;;;1.30;;
828;SDS011;396;52.558;13.188;2023-03-13T10:29:42;7.13;;;1.83;;
828;SDS011;396;52.558;13.188;2023-03-13T10:32:09;10.13;;;2.10;;
828;SDS011;396;52.558;13.188;2023-03-13T10:34:45;6.33;;;1.47;;
828;SDS011;396;52.558;13.188;2023-03-13T10:37:19;7.70;;;1.70;;
828;SDS011;396;52.558;13.188;2023-03-13T10:39:47;11.70;;;1.50;;
828;SDS011;396;52.558;13.188;2023-03-13T10:42:18;5.73;;;1.63;;
828;SDS011;396;52.558;13.188;2023-03-13T10:44:49;8.13;;;1.07;;
828;SDS011;396;52.558;13.188;2023-03-13T10:47:21;5.60;;;1.33;;
828;SDS011;396;52.558;13.188;2023-03-13T10:49:49;4.93;;;1.37;;
828;SDS011;396;52.558;13.188;2023-03-13T10:52:31;6.47;;;1.60;;
828;SDS011;396;52.558;13.188;2023-03-13T10:55:02;5.20;;;1.17;;
828;SDS011;396;52.558;13.188;2023-03-13T10:57:30;8.93;;;1.63;;
828;SDS011;396;52.558;13.188;2023-03-13T10:59:58;10.03;;;1.93;;
828;SDS011;396;52.558;13.188;2023-03-13T11:02:31;5.07;;;1.60;;
828;SDS011;396;52.558;13.188;2023-03-13T11:05:00;7.53;;;1.53;;
828;SDS011;396;52.558;13.188;2023-03-13T11:07:28;5.00;;;0.93;;
828;SDS011;396;52.558;13.188;2023-03-13T11:09:59;6.37;;;1.70;;
828;SDS011;396;52.558;13.188;2023-03-13T11:12:28;7.70;;;1.60;;
828;SDS011;396;52.558;13.188;2023-03-13T11:15:00;5.00;;;1.10;;
828;SDS011;396;52.558;13.188;2023-03-13T11:17:31;4.60;;;0.90;;
828;SDS011;396;52.558;13.188;2023-03-13T11:20:04;9.80;;;1.63;;
828;SDS011;396;52.558;13.188;2023-03-13T11:22:39;5.47;;;1.17;;
828;SDS011;396;52.558;13.188;2023-03-13T11:25:20;5.60;;;1.17;;
828;SDS011;396;52.558;13.188;2023-03-13T11:30:59;4.90;;;1.00;;
828;SDS011;396;52.558;13.188;2023-03-13T11:33:35;5.97;;;1.20;;
828;SDS011;396;52.558;13.188;2023-03-13T11:36:08;4.60;;;0.83;;
828;SDS011;396;52.558;13.188;2023-03-13T11:38:44;5.27;;;0.87;;
828;SDS011;396;52.558;13.188;2023-03-13T11:41:22;8.20;;;1.30;;
828;SDS011;396;52.558;13.188;2023-03-13T11:44:09;6.43;;;1.10;;
828;SDS011;396;52.558;13.188;2023-03-13T11:46:48;5.23;;;1.00;;
828;SDS011;396;52.558;13.188;2023-03-13T11:49:34;4.77;;;0.80;;
828;SDS011;396;52.558;13.188;2023-03-13T11:52:10;4.70;;;0.77;;
828;SDS011;396;52.558;13.188;2023-03-13T11:54:57;5.57;;;0.97;;
828;SDS011;396;52.558;13.188;2023-03-13T11:57:36;6.20;;;0.97;;
828;SDS011;396;52.558;13.188;2023-03-13T12:00:14;4.50;;;1.07;;
828;SDS011;396;52.558;13.188;2023-03-13T12:02:48;8.30;;;1.33;;
828;SDS011;396;52.558;13.188;2023-03-13T12:05:17;5.27;;;1.10;;
828;SDS011;396;52.558;13.188;2023-03-13T12:07:46;4.40;;;0.70;;
828;SDS011;396;52.558;13.188;2023-03-13T12:10:18;5.00;;;0.60;;
828;SDS011;396;52.558;13.188;2023-03-13T12:12:53;4.90;;;0.70;;
828;SDS011;396;52.558;13.188;2023-03-13T12:15:25;4.60;;;0.80;;
828;SDS011;396;52.558;13.188;2023-03-13T12:17:57;6.53;;;0.73;;
828;SDS011;396;52.558;13.188;2023-03-13T12:20:29;4.97;;;0.97;;
828;SDS011;396;52.558;13.188;2023-03-13T12:23:07;7.47;;;1.03;;
828;SDS011;396;52.558;13.188;2023-03-13T12:25:43;4.53;;;0.80;;
828;SDS011;396;52.558;13.188;2023-03-13T12:28:20;5.30;;;0.70;;
828;SDS011;396;52.558;13.188;2023-03-13T12:30:55;4.40;;;0.70;;
828;SDS011;396;52.558;13.188;2023-03-13T12:33:28;4.43;;;0.70;;
828;SDS011;396;52.558;13.188;2023-03-13T12:36:00;4.07;;;0.70;;
828;SDS011;396;52.558;13.188;2023-03-13T12:38:36;4.00;;;0.50;;
828;SDS011;396;52.558;13.188;2023-03-13T12:41:07;4.20;;;0.60;;
828;SDS011;396;52.558;13.188;2023-03-13T12:43:51;5.80;;;0.80;;
828;SDS011;396;52.558;13.188;2023-03-13T12:46:32;4.10;;;0.60;;
828;SDS011;396;52.558;13.188;2023-03-13T12:49:08;4.53;;;0.90;;
828;SDS011;396;52.558;13.188;2023-03-13T12:51:51;4.70;;;0.90;;
828;SDS011;396;52.558;13.188;2023-03-13T12:54:32;4.33;;;0.70;;
828;SDS011;396;52.558;13.188;2023-03-13T12:57:13;5.80;;;0.70;;
828;SDS011;396;52.558;13.188;2023-03-13T12:59:55;5.33;;;0.80;;
828;SDS011;396;52.558;13.188;2023-03-13T13:02:29;4.37;;;0.73;;
828;SDS011;396;52.558;13.188;2023-03-13T13:04:58;5.17;;;0.80;;
828;SDS011;396;52.558;13.188;2023-03-13T13:07:27;4.10;;;0.60;;
828;SDS011;396;52.558;13.188;2023-03-13T13:10:00;4.70;;;0.80;;
828;SDS011;396;52.558;13.188;2023-03-13T13:12:40;5.33;;;1.10;;
828;SDS011;396;52.558;13.188;2023-03-13T13:15:14;5.53;;;1.27;;
828;SDS011;396;52.558;13.188;2023-03-13T13:17:52;4.50;;;0.80;;
828;SDS011;396;52.558;13.188;2023-03-13T13:20:31;5.20;;;0.87;;
828;SDS011;396;52.558;13.188;2023-03-13T13:25:57;7.90;;;0.77;;
828;SDS011;396;52.558;13.188;2023-03-13T13:32:31;4.60;;;0.70;;
828;SDS011;396;52.558;13.188;2023-03-13T13:35:20;4.50;;;0.90;;
828;SDS011;396;52.558;13.188;2023-03-13T13:37:48;4.50;;;0.90;;
828;SDS011;396;52.558;13.188;2023-03-13T13:40:19;4.40;;;0.80;;
828;SDS011;396;52.558;13.188;2023-03-13T13:42:49;4.37;;;0.77;;
828;SDS011;396;52.558;13.188;2023-03-13T13:45:27;4.20;;;0.57;;
828;SDS011;396;52.558;13.188;2023-03-13T13:53:50;4.20;;;0.70;;
828;SDS011;396;52.558;13.188;2023-03-13T13:56:30;4.30;;;0.70;;
828;SDS011;396;52.558;13.188;2023-03-13T13:59:04;4.70;;;0.63;;
828;SDS011;396;52.558;13.188;2023-03-13T14:01:46;4.60;;;1.00;;
828;SDS011;396;52.558;13.188;2023-03-13T14:04:17;4.67;;;0.87;;
828;SDS011;396;52.558;13.188;2023-03-13T14:06:50;8.13;;;0.80;;
828;SDS011;396;52.558;13.188;2023-03-13T14:09:19;5.43;;;0.90;;
828;SDS011;396;52.558;13.188;2023-03-13T14:11:56;4.93;;;1.00;;
828;SDS011;396;52.558;13.188;2023-03-13T14:14:23;4.40;;;0.77;;
828;SDS011;396;52.558;13.188;2023-03-13T14:16:50;4.20;;;0.70;;
828;SDS011;396;52.558;13.188;2023-03-13T14:19:23;4.30;;;0.60;;
828;SDS011;396;52.558;13.188;2023-03-13T14:21:56;4.80;;;0.80;;
828;SDS011;396;52.558;13.188;2023-03-13T14:24:24;4.07;;;0.53;;
828;SDS011;396;52.558;13.188;2023-03-13T14:26:51;4.10;;;0.70;;
828;SDS011;396;52.558;13.188;2023-03-13T14:29:18;5.47;;;1.00;;
828;SDS011;396;52.558;13.188;2023-03-13T14:31:50;5.03;;;0.80;;
828;SDS011;396;52.558;13.188;2023-03-13T14:34:19;4.60;;;0.90;;
828;SDS011;396;52.558;13.188;2023-03-13T14:36:48;4.53;;;1.00;;
828;SDS011;396;52.558;13.188;2023-03-13T14:39:16;4.97;;;0.90;;
828;SDS011;396;52.558;13.188;2023-03-13T14:41:46;5.23;;;0.83;;
828;SDS011;396;52.558;13.188;2023-03-13T14:44:15;5.40;;;1.20;;
828;SDS011;396;52.558;13.188;2023-03-13T14:46:49;4.40;;;0.80;;
828;SDS011;396;52.558;13.188;2023-03-13T14:49:21;5.70;;;0.97;;
828;SDS011;396;52.558;13.188;2023-03-13T14:51:57;4.40;;;0.77;;
828;SDS011;396;52.558;13.188;2023-03-13T14:54:27;4.53;;;0.90;;
828;SDS011;396;52.558;13.188;2023-03-13T14:57:02;5.97;;;0.83;;
828;SDS011;396;52.558;13.188;2023-03-13T14:59:31;6.17;;;0.90;;
828;SDS011;396;52.558;13.188;2023-03-13T15:01:58;4.57;;;1.07;;
828;SDS011;396;52.558;13.188;2023-03-13T15:07:15;4.60;;;0.90;;
828;SDS011;396;52.558;13.188;2023-03-13T15:09:43;5.60;;;0.70;;
828;SDS011;396;52.558;13.188;2023-03-13T15:12:12;4.10;;;0.73;;
828;SDS011;396;52.558;13.188;2023-03-13T15:14:41;4.33;;;0.80;;
828;SDS011;396;52.558;13.188;2023-03-13T15:17:16;4.53;;;0.90;;
828;SDS011;396;52.558;13.188;2023-03-13T15:19:48;5.23;;;0.90;;
828;SDS011;396;52.558;13.188;2023-03-13T15:22:17;4.60;;;1.00;;
828;SDS011;396;52.558;13.188;2023-03-13T15:24:47;9.50;;;0.90;;
828;SDS011;396;52.558;13.188;2023-03-13T15:27:14;5.07;;;1.10;;
828;SDS011;396;52.558;13.188;2023-03-13T15:29:42;4.37;;;0.63;;
828;SDS011;396;52.558;13.188;2023-03-13T15:32:11;8.20;;;1.23;;
828;SDS011;396;52.558;13.188;2023-03-13T15:34:42;4.30;;;0.73;;
828;SDS011;396;52.558;13.188;2023-03-13T15:37:10;5.17;;;1.00;;
828;SDS011;396;52.558;13.188;2023-03-13T15:39:38;4.40;;;0.87;;
828;SDS011;396;52.558;13.188;2023-03-13T15:42:05;4.97;;;0.70;;
828;SDS011;396;52.558;13.188;2023-03-13T15:44:32;4.77;;;0.87;;
828;SDS011;396;52.558;13.188;2023-03-13T15:46:59;4.17;;;0.63;;
828;SDS011;396;52.558;13.188;2023-03-13T15:49:26;4.40;;;0.97;;
828;SDS011;396;52.558;13.188;2023-03-13T15:51:53;5.57;;;1.20;;
828;SDS011;396;52.558;13.188;2023-03-13T15:54:19;4.40;;;0.77;;
828;SDS011;396;52.558;13.188;2023-03-13T15:56:47;4.60;;;0.80;;